Time;durP1;ratioP1;P1;durP2;ratioP2;P2;SDS_P1;SDS_P2;PMS_P1;PMS_P2;Temp;Humidity;BMP_temperature;BMP_pressure;BME280_temperature;BME280_humidity;BME280_pressure;Samples;Min_cycle;Max_cycle;Signal;HPM_P1;HPM_P2
2023/02/18 00:02:04;;;;;;;4.00;2.10;;;;;;;8.11;54.18;99821.80;111080;1252;23599;-78
2023/02/18 00:05:28;;;;;;;6.60;1.50;;;;;;;8.02;54.06;99829.73;111050;1257;21988;-78
2023/02/18 00:08:01;;;;;;;6.70;1.80;;;;;;;7.97;54.15;99833.20;110703;1263;22225;-78
2023/02/18 00:10:37;;;;;;;4.10;1.50;;;;;;;7.95;53.85;99838.13;110430;1263;21982;-78
2023/02/18 00:13:17;;;;;;;7.10;2.20;;;;;;;7.93;53.67;99847.20;110201;1263;23026;-77
2023/02/18 00:16:11;;;;;;;5.00;1.70;;;;;;;7.88;53.46;99847.91;110550;1262;22008;-78
2023/02/18 00:18:56;;;;;;;6.60;2.00;;;;;;;7.83;53.43;99851.55;110191;1263;21973;-78
2023/02/18 00:21:33;;;;;;;4.30;1.40;;;;;;;7.78;53.35;99860.70;110515;1263;21975;-79
2023/02/18 00:24:17;;;;;;;4.20;1.70;;;;;;;7.76;53.28;99861.99;110710;1260;22829;-79
2023/02/18 00:27:02;;;;;;;6.70;2.70;;;;;;;7.76;53.36;99868.42;110510;1263;21992;-77
2023/02/18 00:29:45;;;;;;;8.30;2.40;;;;;;;7.70;53.30;99870.88;110493;1263;21972;-78
2023/02/18 00:32:25;;;;;;;11.50;2.50;;;;;;;7.66;53.37;99878.95;110582;1263;22041;-78
2023/02/18 00:35:05;;;;;;;7.90;2.40;;;;;;;7.64;53.32;99886.13;110117;1263;22078;-79
2023/02/18 00:37:47;;;;;;;6.30;2.30;;;;;;;7.60;53.27;99890.08;110434;1263;21989;-78
2023/02/18 00:40:32;;;;;;;8.40;2.00;;;;;;;7.56;53.43;99892.27;110248;1263;22501;-79
2023/02/18 00:43:20;;;;;;;6.60;2.50;;;;;;;7.51;53.54;99897.14;110414;1251;23716;-78
2023/02/18 00:46:06;;;;;;;6.40;2.30;;;;;;;7.44;53.69;99894.41;111083;1253;21969;-78
2023/02/18 00:49:22;;;;;;;11.60;2.80;;;;;;;7.36;54.00;99895.50;111095;1257;22688;-78
2023/02/18 00:52:41;;;;;;;12.90;3.00;;;;;;;7.30;54.22;99893.98;110782;1257;22723;-80
2023/02/18 00:55:32;;;;;;;9.00;2.40;;;;;;;7.24;54.41;99892.95;111030;1257;21958;-78
2023/02/18 00:58:16;;;;;;;10.20;3.00;;;;;;;7.23;54.56;99901.81;110776;1250;21957;-78
2023/02/18 01:01:00;;;;;;;6.40;2.50;;;;;;;7.19;54.60;99897.95;110975;1257;23615;-78
2023/02/18 01:04:41;;;;;;;11.40;2.70;;;;;;;7.14;54.76;99904.01;110884;1257;22222;-79
2023/02/18 01:07:41;;;;;;;;;;;;;;;;;;;;;
2023/02/18 01:10:50;;;;;;;11.80;4.00;;;;;;;7.07;54.97;99911.14;111286;1255;24089;-78
2023/02/18 01:13:58;;;;;;;8.90;2.70;;;;;;;7.03;55.28;99913.66;110793;1260;22462;-78
2023/02/18 01:17:00;;;;;;;8.40;2.50;;;;;;;7.03;55.38;99914.00;110763;1260;21999;-78
2023/02/18 01:20:31;;;;;;;7.00;2.70;;;;;;;7.04;55.57;99922.63;110815;1260;22302;-77
2023/02/18 01:23:30;;;;;;;8.30;3.00;;;;;;;7.07;55.65;99914.25;110339;1266;21988;-77
2023/02/18 01:26:26;;;;;;;9.60;2.70;;;;;;;7.09;55.60;99919.20;109560;1271;24322;-79
2023/02/18 01:29:19;;;;;;;11.50;4.20;;;;;;;7.10;55.55;99910.87;109867;1267;23018;-80
2023/02/18 01:32:12;;;;;;;7.20;2.70;;;;;;;7.12;55.51;99910.30;110233;1263;22011;-79
2023/02/18 01:35:04;;;;;;;11.40;3.90;;;;;;;7.11;55.33;99908.23;110443;1263;21968;-78
2023/02/18 01:38:13;;;;;;;12.00;3.50;;;;;;;7.09;55.42;99913.48;110513;1263;23614;-78
2023/02/18 01:41:09;;;;;;;11.00;3.20;;;;;;;7.08;55.44;99922.17;110180;1263;23029;-79
2023/02/18 01:44:16;;;;;;;11.00;3.10;;;;;;;7.06;55.48;99923.27;110666;1259;22237;-78
2023/02/18 01:47:17;;;;;;;8.80;3.00;;;;;;;7.02;55.49;99913.86;110263;1258;22989;-78
2023/02/18 01:50:11;;;;;;;;;;;;;;;;;;;;;
2023/02/18 01:52:51;;;;;;;10.90;3.10;;;;;;;6.93;55.67;99915.70;111039;1257;23106;-77
2023/02/18 01:55:44;;;;;;;9.70;2.60;;;;;;;6.89;55.87;99916.85;111135;1257;21972;-78
2023/02/18 01:59:07;;;;;;;;;;;;;;;;;;;;;
2023/02/18 02:01:56;;;;;;;9.10;2.70;;;;;;;6.81;56.43;99919.52;110992;1251;21957;-78
2023/02/18 02:05:04;;;;;;;8.10;2.70;;;;;;;6.80;56.63;99924.05;111252;1253;23621;-79
2023/02/18 02:08:00;;;;;;;9.60;2.80;;;;;;;6.79;56.90;99923.52;111477;1245;23101;-77
2023/02/18 02:11:15;;;;;;;7.40;2.90;;;;;;;6.80;56.95;99928.88;111081;1257;21971;-78
2023/02/18 02:14:08;;;;;;;;;;;;;;;;;;;;;
2023/02/18 02:17:05;;;;;;;10.10;3.20;;;;;;;6.74;56.96;99933.02;111046;1257;24556;-77
2023/02/18 02:20:43;;;;;;;9.80;2.50;;;;;;;6.71;57.13;99932.59;111086;1257;23734;-78
2023/02/18 02:23:43;;;;;;;8.80;2.90;;;;;;;6.66;57.11;99932.74;110848;1259;23011;-79
2023/02/18 02:27:15;;;;;;;8.80;3.00;;;;;;;6.62;57.26;99941.16;111136;1258;22282;-78
2023/02/18 02:30:18;;;;;;;8.20;3.00;;;;;;;6.59;57.40;99936.91;111377;1254;23010;-79
2023/02/18 02:33:36;;;;;;;6.90;2.60;;;;;;;6.59;57.42;99937.77;111427;1254;21960;-78
2023/02/18 02:36:29;;;;;;;8.50;2.60;;;;;;;6.56;57.41;99942.52;111205;1254;21950;-79
2023/02/18 02:39:35;;;;;;;10.90;2.80;;;;;;;6.51;57.46;99940.60;111215;1254;21969;-78
2023/02/18 02:42:40;;;;;;;13.40;4.20;;;;;;;6.42;57.57;99942.55;111226;1241;23013;-78
2023/02/18 02:45:21;;;;;;;10.40;2.80;;;;;;;6.36;57.69;99940.65;111211;1251;21959;-77
2023/02/18 02:48:16;;;;;;;7.00;2.00;;;;;;;6.33;57.69;99935.20;111440;1254;24150;-78
2023/02/18 02:51:20;;;;;;;15.50;4.30;;;;;;;6.30;57.71;99938.92;111436;1253;21980;-77
2023/02/18 02:54:24;;;;;;;9.70;2.80;;;;;;;6.26;57.82;99943.69;111227;1254;23654;-77
2023/02/18 02:57:21;;;;;;;12.80;4.20;;;;;;;6.25;57.94;99953.05;111125;1254;21950;-77
2023/02/18 03:01:15;;;;;;;9.20;3.60;;;;;;;6.24;57.96;99957.39;111295;1255;22318;-77
2023/02/18 03:05:01;;;;;;;9.40;2.60;;;;;;;6.20;58.12;99965.44;110403;1264;23074;-78
2023/02/18 03:08:12;;;;;;;7.10;2.40;;;;;;;6.17;58.12;99966.71;110111;1264;21970;-78
2023/02/18 03:12:13;;;;;;;;;;;;;;;;;;;;;
2023/02/18 03:16:20;;;;;;;9.80;2.90;;;;;;;6.11;58.32;99964.48;110062;1268;21966;-77
2023/02/18 03:19:37;;;;;;;10.10;2.70;;;;;;;6.12;58.34;99965.13;109520;1272;22954;-79
2023/02/18 03:23:00;;;;;;;10.30;2.70;;;;;;;6.10;58.27;99963.28;109203;1273;21985;-77
2023/02/18 03:26:11;;;;;;;7.50;2.80;;;;;;;6.08;58.32;99961.95;109153;1271;22132;-78
2023/02/18 03:29:17;;;;;;;6.50;2.10;;;;;;;6.06;58.31;99962.52;108903;1278;22003;-78
2023/02/18 03:32:20;;;;;;;8.90;3.20;;;;;;;6.07;58.42;99967.34;108741;1278;22491;-78
2023/02/18 03:36:12;;;;;;;8.50;3.30;;;;;;;6.05;58.57;99965.14;109018;1276;22000;-78
2023/02/18 03:42:51;;;;;;;6.60;2.40;;;;;;;5.97;58.75;99987.95;109570;1270;23605;-77
2023/02/18 03:45:49;;;;;;;9.80;2.90;;;;;;;5.99;58.79;99996.72;109863;1270;23379;-78
2023/02/18 03:48:44;;;;;;;;;;;;;;;;;;;;;
2023/02/18 03:52:11;;;;;;;7.90;2.50;;;;;;;6.07;58.96;99998.61;109401;1274;22003;-79
2023/02/18 03:55:24;;;;;;;;;;;;;;;;;;;;;
2023/02/18 03:58:33;;;;;;;;;;;;;;;;;;;;;
2023/02/18 04:01:23;;;;;;;;;;;;;;;;;;;;;
2023/02/18 04:04:11;;;;;;;15.50;3.70;;;;;;;6.21;59.18;100024.52;109810;1269;21974;-78
2023/02/18 04:07:01;;;;;;;;;;;;;;;;;;;;;
2023/02/18 04:10:24;;;;;;;9.60;3.60;;;;;;;6.22;59.03;100021.55;111045;1254;22006;-78
2023/02/18 04:13:22;;;;;;;10.30;3.20;;;;;;;6.21;59.03;100026.42;111300;1254;21963;-78
2023/02/18 04:16:20;;;;;;;10.50;2.70;;;;;;;6.20;58.94;100032.81;110562;1259;21976;-78
2023/02/18 04:19:12;;;;;;;7.40;2.50;;;;;;;6.20;58.94;100036.98;110658;1259;21966;-77
2023/02/18 04:22:10;;;;;;;;;;;;;;;;;;;;;
2023/02/18 04:25:06;;;;;;;;;;;;;;;;;;;;;
2023/02/18 04:28:15;;;;;;;;;;;;;;;;;;;;;
2023/02/18 04:31:06;;;;;;;12.60;3.70;;;;;;;6.16;59.22;100033.98;109516;1271;21985;-78
2023/02/18 04:34:12;;;;;;;7.20;3.10;;;;;;;6.17;59.24;100034.11;109169;1272;22076;-78
2023/02/18 04:37:06;;;;;;;14.50;5.00;;;;;;;6.16;59.26;100036.04;109442;1272;21993;-77
2023/02/18 04:40:32;;;;;;;;;;;;;;;;;;;;;
2023/02/18 04:43:35;;;;;;;14.60;4.00;;;;;;;6.12;59.29;100039.26;109238;1273;22510;-79
2023/02/18 04:47:34;;;;;;;15.60;5.00;;;;;;;6.08;59.25;100035.02;110110;1266;21976;-79
2023/02/18 04:50:01;;;;;;;14.20;3.90;;;;;;;6.06;59.29;100041.47;109363;1273;24362;-78
2023/02/18 04:53:29;;;;;;;10.60;2.70;;;;;;;6.06;59.48;100037.30;109868;1268;21970;-80
2023/02/18 04:56:19;;;;;;;9.20;2.80;;;;;;;6.10;59.38;100041.02;110004;1268;22568;-79
2023/02/18 04:59:32;;;;;;;10.90;3.00;;;;;;;6.11;59.39;100039.61;110031;1268;23784;-79
2023/02/18 05:03:15;;;;;;;13.50;3.50;;;;;;;6.11;59.42;100040.65;110146;1268;23617;-78
2023/02/18 05:06:29;;;;;;;10.50;3.30;;;;;;;6.07;59.43;100035.22;109453;1273;21930;-77
2023/02/18 05:09:27;;;;;;;9.30;2.90;;;;;;;6.05;59.43;100035.08;109786;1270;22741;-78
2023/02/18 05:12:07;;;;;;;11.50;4.50;;;;;;;6.03;59.53;100032.55;109808;1270;23729;-78
2023/02/18 05:14:48;;;;;;;14.10;4.60;;;;;;;6.01;59.41;100032.08;110482;1262;23637;-78
2023/02/18 05:17:36;;;;;;;11.10;5.00;;;;;;;5.97;59.37;100030.63;110561;1261;21996;-77
2023/02/18 05:20:52;;;;;;;11.30;3.70;;;;;;;5.93;59.44;100035.02;110024;1267;22003;-78
2023/02/18 05:23:59;;;;;;;14.30;4.10;;;;;;;5.89;59.61;100037.86;110150;1267;22119;-78
2023/02/18 05:27:04;;;;;;;6.40;3.10;;;;;;;5.89;59.73;100042.88;110351;1266;21996;-77
2023/02/18 05:30:37;;;;;;;9.70;3.10;;;;;;;5.85;59.75;100043.81;110319;1266;23187;-78
2023/02/18 05:33:55;;;;;;;13.80;3.20;;;;;;;5.82;59.77;100050.12;110096;1267;21984;-79
2023/02/18 05:36:42;;;;;;;10.50;3.00;;;;;;;5.80;59.75;100061.89;110125;1266;21993;-77
2023/02/18 05:39:35;;;;;;;13.20;3.40;;;;;;;5.79;59.82;100062.95;110730;1261;23666;-78
2023/02/18 05:42:25;;;;;;;;;;;;;;;;;;;;;
2023/02/18 05:45:28;;;;;;;10.50;3.10;;;;;;;5.79;59.93;100067.10;111433;1254;23031;-79
2023/02/18 05:48:25;;;;;;;11.50;3.60;;;;;;;5.81;59.88;100062.57;110968;1255;22000;-78
2023/02/18 05:51:02;;;;;;;11.90;4.50;;;;;;;5.80;60.01;100067.94;111211;1255;21991;-77
2023/02/18 05:53:48;;;;;;;9.90;3.20;;;;;;;5.83;60.00;100077.91;111021;1255;21989;-79
2023/02/18 05:56:49;;;;;;;11.40;3.60;;;;;;;5.83;60.00;100076.50;111226;1255;21983;-77
2023/02/18 06:00:04;;;;;;;13.90;3.80;;;;;;;5.82;60.02;100081.53;111073;1255;23002;-78
2023/02/18 06:03:13;;;;;;;11.10;3.80;;;;;;;5.82;59.95;100090.36;110937;1253;22064;-78
2023/02/18 06:06:01;;;;;;;;;;;;;;;;;;;;;
2023/02/18 06:09:05;;;;;;;18.60;3.90;;;;;;;5.80;59.92;100093.16;111225;1255;21950;-78
2023/02/18 06:11:51;;;;;;;8.20;2.90;;;;;;;5.79;59.86;100092.66;107675;1260;4092014;-77
2023/02/18 06:14:25;;;;;;;10.60;3.00;;;;;;;5.77;59.98;100092.19;110586;1256;21975;-77
2023/02/18 06:16:56;;;;;;;11.80;3.30;;;;;;;5.78;60.04;100101.15;110692;1260;23697;-78
2023/02/18 06:19:26;;;;;;;10.70;2.50;;;;;;;5.80;60.00;100106.29;110685;1260;22714;-78
2023/02/18 06:22:05;;;;;;;11.10;4.10;;;;;;;5.82;60.10;100106.23;110596;1260;22136;-77
2023/02/18 06:24:42;;;;;;;9.10;3.40;;;;;;;5.83;60.04;100107.42;110348;1265;21967;-76
2023/02/18 06:27:26;;;;;;;13.00;4.10;;;;;;;5.81;60.01;100107.46;110354;1265;22003;-77
2023/02/18 06:30:12;;;;;;;14.70;3.60;;;;;;;5.80;59.98;100106.98;110350;1260;22976;-78
2023/02/18 06:33:12;;;;;;;11.10;3.20;;;;;;;5.74;59.91;100110.90;110453;1264;21976;-77
2023/02/18 06:36:35;;;;;;;13.00;3.50;;;;;;;5.73;59.92;100108.67;109609;1270;23809;-78
2023/02/18 06:39:29;;;;;;;;;;;;;;;5.70;60.01;100102.86;109960;1270;21966;-77
2023/02/18 06:42:20;;;;;;;10.40;4.20;;;;;;;5.65;60.16;100105.73;109746;1266;23162;-78
2023/02/18 06:45:15;;;;;;;8.90;2.80;;;;;;;5.68;60.23;100101.70;109714;1271;22164;-77
2023/02/18 06:48:23;;;;;;;9.10;3.40;;;;;;;5.70;60.14;100104.25;109459;1271;21987;-77
2023/02/18 06:52:00;;;;;;;11.40;3.60;;;;;;;5.69;60.09;100108.94;109339;1271;21987;-77
2023/02/18 06:54:42;;;;;;;;;;;;;;;;;;;;;
2023/02/18 06:57:44;;;;;;;17.00;4.40;;;;;;;5.61;60.24;100117.04;110391;1266;22973;-80
2023/02/18 07:00:36;;;;;;;9.40;4.00;;;;;;;5.65;60.42;100120.58;109504;1271;21990;-78
2023/02/18 07:03:30;;;;;;;13.90;5.30;;;;;;;5.71;60.46;100120.80;109241;1272;22184;-74
2023/02/18 07:06:09;;;;;;;11.80;4.20;;;;;;;5.84;60.50;100118.27;109268;1272;23733;-76
2023/02/18 07:08:52;;;;;;;14.40;4.30;;;;;;;5.98;60.52;100117.98;109260;1272;22003;-75
2023/02/18 07:11:30;;;;;;;13.80;5.00;;;;;;;6.07;60.10;100116.09;109403;1271;21991;-75
2023/02/18 07:14:29;;;;;;;12.70;3.70;;;;;;;6.14;59.97;100121.81;109518;1271;23079;-80
2023/02/18 07:17:05;;;;;;;9.70;3.30;;;;;;;6.21;59.90;100120.75;109389;1271;21994;-75
2023/02/18 07:19:41;;;;;;;11.70;3.80;;;;;;;6.32;59.93;100123.09;110136;1265;22247;-80
2023/02/18 07:22:21;;;;;;;12.20;4.90;;;;;;;6.42;59.76;100125.11;110428;1261;21968;-76
2023/02/18 07:25:26;;;;;;;12.20;3.90;;;;;;;6.48;59.50;100122.70;110634;1261;21970;-79
2023/02/18 07:28:10;;;;;;;11.90;3.90;;;;;;;6.57;59.45;100121.27;111137;1255;23602;-75
2023/02/18 07:31:05;;;;;;;13.70;4.70;;;;;;;6.63;59.14;100127.16;110989;1255;23777;-77
2023/02/18 07:34:00;;;;;;;11.80;5.10;;;;;;;6.69;59.06;100128.41;111032;1255;23583;-75
2023/02/18 07:36:43;;;;;;;9.90;4.50;;;;;;;6.75;58.95;100135.16;110934;1254;23622;-75
2023/02/18 07:42:24;;;;;;;17.60;5.00;;;;;;;6.94;58.83;100131.04;111205;1252;23116;-76
2023/02/18 07:45:18;;;;;;;11.60;4.80;;;;;;;7.07;58.63;100134.16;111042;1255;23316;-75
2023/02/18 07:48:06;;;;;;;14.70;4.90;;;;;;;7.18;58.28;100132.31;111036;1255;23005;-76
2023/02/18 07:50:46;;;;;;;10.10;5.10;;;;;;;7.22;57.93;100130.30;110549;1260;22656;-76
2023/02/18 07:53:32;;;;;;;11.80;4.70;;;;;;;7.23;57.72;100131.30;110788;1260;21972;-75
2023/02/18 07:56:21;;;;;;;13.30;5.40;;;;;;;7.27;57.68;100135.70;110620;1260;23717;-77
2023/02/18 07:59:18;;;;;;;15.10;4.80;;;;;;;7.25;57.27;100133.67;110570;1260;21964;-76
2023/02/18 08:02:26;;;;;;;11.90;4.70;;;;;;;7.20;57.14;100130.86;110616;1260;22035;-76
2023/02/18 08:05:26;;;;;;;13.20;5.40;;;;;;;7.13;57.13;100129.67;110719;1259;21960;-75
2023/02/18 08:08:25;;;;;;;12.10;4.60;;;;;;;7.09;57.22;100128.59;110944;1254;22132;-77
2023/02/18 08:11:17;;;;;;;11.80;5.10;;;;;;;7.04;57.22;100134.77;111108;1254;21970;-75
2023/02/18 08:14:03;;;;;;;15.30;4.30;;;;;;;7.00;57.18;100128.65;111072;1254;23676;-77
2023/02/18 08:17:03;;;;;;;13.30;5.20;;;;;;;7.06;57.66;100125.73;111149;1255;22099;-76
2023/02/18 08:19:54;;;;;;;11.10;4.30;;;;;;;7.16;57.62;100128.90;110993;1244;21965;-75
2023/02/18 08:23:33;;;;;;;12.80;5.00;;;;;;;7.27;57.68;100126.88;111272;1254;23535;-78
2023/02/18 08:26:39;;;;;;;13.10;5.30;;;;;;;7.37;57.55;100125.55;110382;1262;23022;-76
2023/02/18 08:29:50;;;;;;;15.20;6.00;;;;;;;7.41;57.31;100120.41;110407;1262;22037;-77
2023/02/18 08:32:34;;;;;;;18.30;6.70;;;;;;;7.48;57.24;100125.75;110046;1266;21998;-77
2023/02/18 08:35:34;;;;;;;11.70;4.80;;;;;;;7.55;57.21;100125.91;109974;1266;23093;-77
2023/02/18 08:38:33;;;;;;;12.80;5.10;;;;;;;7.64;57.06;100131.02;109890;1266;23596;-75
2023/02/18 08:41:25;;;;;;;17.00;4.30;;;;;;;7.66;56.49;100124.21;110283;1266;21950;-75
2023/02/18 08:44:06;;;;;;;11.20;4.80;;;;;;;7.66;56.45;100121.43;110114;1266;23714;-77
2023/02/18 08:46:39;;;;;;;12.00;4.90;;;;;;;7.68;56.13;100121.05;109709;1271;23692;-77
2023/02/18 08:49:11;;;;;;;10.40;4.80;;;;;;;7.69;56.08;100122.05;109634;1271;23718;-75
2023/02/18 08:52:06;;;;;;;13.40;4.80;;;;;;;7.74;56.09;100119.30;109282;1270;23840;-76
2023/02/18 08:55:03;;;;;;;12.30;5.20;;;;;;;7.81;55.84;100120.64;109565;1270;23154;-75
2023/02/18 08:57:48;;;;;;;15.70;8.20;;;;;;;7.82;55.66;100117.83;109593;1270;23031;-76
2023/02/18 09:00:38;;;;;;;15.80;5.60;;;;;;;7.83;55.46;100118.67;109515;1259;22020;-77
2023/02/18 09:03:31;;;;;;;11.30;5.80;;;;;;;7.83;55.32;100120.05;109748;1263;22727;-77
2023/02/18 09:06:14;;;;;;;19.10;6.40;;;;;;;7.89;55.25;100116.25;111034;1258;23744;-76
2023/02/18 09:08:49;;;;;;;15.40;7.20;;;;;;;7.96;55.08;100113.95;110794;1258;21971;-77
2023/02/18 09:11:38;;;;;;;9.60;4.50;;;;;;;8.00;54.78;100114.17;111052;1255;21963;-76
2023/02/18 09:14:12;;;;;;;12.80;4.60;;;;;;;8.04;54.48;100118.23;111063;1255;23692;-77
2023/02/18 09:16:55;;;;;;;13.10;4.90;;;;;;;8.11;54.58;100120.25;110700;1259;22027;-76
2023/02/18 09:19:31;;;;;;;13.70;7.20;;;;;;;8.20;54.38;100123.79;110704;1259;23615;-76
2023/02/18 09:22:10;;;;;;;12.20;5.30;;;;;;;8.25;54.17;100123.26;110703;1260;21997;-77
2023/02/18 09:25:08;;;;;;;11.10;4.60;;;;;;;8.30;54.02;100123.79;110652;1260;22691;-79
2023/02/18 09:27:42;;;;;;;11.90;5.60;;;;;;;8.33;53.67;100123.70;110407;1264;22002;-75
2023/02/18 09:30:21;;;;;;;11.80;4.70;;;;;;;8.39;53.78;100121.09;110632;1264;21986;-77
2023/02/18 09:33:26;;;;;;;11.50;4.20;;;;;;;8.49;53.57;100115.59;110067;1266;23767;-76
2023/02/18 09:36:36;;;;;;;10.50;4.90;;;;;;;8.68;53.54;100108.75;109852;1268;22916;-76
2023/02/18 09:39:33;;;;;;;11.30;5.20;;;;;;;8.83;53.06;100110.48;109799;1268;23125;-78
2023/02/18 09:42:45;;;;;;;7.70;3.90;;;;;;;8.99;53.04;100108.89;109800;1268;21982;-77
2023/02/18 09:45:25;;;;;;;11.00;4.00;;;;;;;9.36;53.05;100104.60;109849;1265;22047;-76
2023/02/18 09:48:03;;;;;;;8.20;3.90;;;;;;;9.71;52.20;100096.36;109389;1270;21997;-77
2023/02/18 09:50:51;;;;;;;13.10;5.10;;;;;;;9.83;50.89;100090.68;109745;1267;22355;-77
2023/02/18 09:53:26;;;;;;;10.30;4.50;;;;;;;9.88;50.65;100086.48;109832;1267;22730;-77
2023/02/18 09:56:16;;;;;;;;;;;;;;;;;;;;;
2023/02/18 09:59:29;;;;;;;11.50;5.50;;;;;;;9.86;49.84;100087.59;109264;1273;22052;-77
2023/02/18 10:02:24;;;;;;;9.80;3.50;;;;;;;9.88;49.96;100087.67;109257;1273;22739;-77
2023/02/18 10:05:01;;;;;;;7.10;4.00;;;;;;;9.99;49.82;100073.34;108925;1276;23402;-76
2023/02/18 10:08:18;;;;;;;11.50;4.40;;;;;;;10.25;50.17;100072.69;109492;1271;21980;-76
2023/02/18 10:10:55;;;;;;;8.20;3.90;;;;;;;10.62;49.67;100074.27;109320;1272;22472;-75
2023/02/18 10:13:38;;;;;;;7.00;3.30;;;;;;;10.89;48.51;100063.40;109595;1265;22347;-76
2023/02/18 10:16:20;;;;;;;9.60;5.20;;;;;;;11.07;47.90;100065.56;110319;1258;21961;-76
2023/02/18 10:19:20;;;;;;;11.30;5.50;;;;;;;11.22;47.28;100063.66;110864;1258;21960;-79
2023/02/18 10:25:22;;;;;;;8.50;3.80;;;;;;;11.59;46.20;100047.00;110544;1264;22975;-75
2023/02/18 10:28:10;;;;;;;7.60;3.60;;;;;;;11.57;45.25;100046.56;110322;1257;23122;-77
2023/02/18 10:31:11;;;;;;;7.20;3.20;;;;;;;11.42;44.86;100043.29;110541;1262;21989;-77
2023/02/18 10:34:42;;;;;;;6.50;2.80;;;;;;;11.28;44.91;100045.80;110146;1266;22957;-77
2023/02/18 10:37:54;;;;;;;5.10;2.60;;;;;;;11.14;44.62;100045.05;110282;1266;23623;-76
2023/02/18 10:41:01;;;;;;;3.90;2.50;;;;;;;11.14;44.55;100046.79;110299;1266;23652;-75
2023/02/18 10:43:39;;;;;;;4.70;3.00;;;;;;;11.15;44.45;100037.71;110434;1261;21971;-76
2023/02/18 10:46:33;;;;;;;4.40;2.40;;;;;;;11.31;44.50;100032.96;110732;1259;21970;-77
2023/02/18 10:49:30;;;;;;;5.80;2.90;;;;;;;11.46;44.11;100024.59;110438;1266;24340;-78
2023/02/18 10:52:05;;;;;;;5.50;4.50;;;;;;;11.74;44.17;100018.75;110520;1263;22188;-76
2023/02/18 10:55:06;;;;;;;6.20;3.10;;;;;;;12.02;43.50;100016.89;110620;1263;21974;-76
2023/02/18 10:57:56;;;;;;;4.60;3.00;;;;;;;12.32;43.26;100015.26;110683;1263;23607;-77
2023/02/18 11:00:48;;;;;;;7.60;4.60;;;;;;;12.41;41.96;100010.23;110703;1261;23589;-76
2023/02/18 11:03:45;;;;;;;6.40;3.30;;;;;;;12.16;42.18;100007.35;110535;1261;21972;-77
2023/02/18 11:06:40;;;;;;;6.80;3.50;;;;;;;11.86;42.42;100004.96;110709;1255;21970;-76
2023/02/18 11:10:10;;;;;;;;;;;;;;;;;;;;;
2023/02/18 11:13:07;;;;;;;8.20;5.10;;;;;;;11.10;42.82;99992.81;111002;1255;22731;-76
2023/02/18 11:15:55;;;;;;;6.50;4.00;;;;;;;10.89;43.11;99987.51;111285;1255;22072;-77
2023/02/18 11:19:03;;;;;;;8.70;3.70;;;;;;;10.71;43.38;99985.15;110613;1261;22037;-77
2023/02/18 11:21:44;;;;;;;3.80;2.60;;;;;;;10.67;43.36;99981.52;110572;1261;21980;-77
2023/02/18 11:24:29;;;;;;;5.00;3.50;;;;;;;10.54;43.45;99968.66;110595;1261;21974;-76
2023/02/18 11:27:46;;;;;;;9.70;5.70;;;;;;;10.42;43.68;99964.82;110626;1261;21934;-75
2023/02/18 11:30:41;;;;;;;7.00;4.90;;;;;;;10.26;44.27;99965.33;110567;1261;23651;-76
2023/02/18 11:34:02;;;;;;;13.00;5.70;;;;;;;10.07;44.63;99958.29;110649;1261;21980;-77
2023/02/18 11:36:52;;;;;;;11.80;7.10;;;;;;;10.01;45.10;99950.02;110807;1255;22739;-77
2023/02/18 11:39:53;;;;;;;8.90;5.50;;;;;;;9.90;45.57;99944.58;111173;1255;22727;-82
2023/02/18 11:42:32;;;;;;;17.90;9.20;;;;;;;9.76;45.97;99947.05;111230;1255;22148;-77
2023/02/18 11:45:33;;;;;;;14.70;8.40;;;;;;;9.66;46.40;99943.33;110990;1255;23690;-77
2023/02/18 11:48:22;;;;;;;7.40;4.30;;;;;;;9.54;46.74;99941.16;111420;1255;22027;-78
2023/02/18 11:51:04;;;;;;;8.00;4.00;;;;;;;9.42;47.01;99940.42;111485;1255;21953;-79
2023/02/18 11:53:39;;;;;;;9.60;4.70;;;;;;;9.34;47.37;99929.27;110893;1244;23083;-79
2023/02/18 11:56:20;;;;;;;7.80;4.20;;;;;;;9.31;47.77;99926.24;111020;1255;21973;-76
2023/02/18 11:59:05;;;;;;;10.50;6.00;;;;;;;9.28;47.98;99928.29;110940;1255;22922;-77
2023/02/18 12:02:36;;;;;;;12.20;7.00;;;;;;;9.13;48.27;99916.38;111135;1254;22366;-76
2023/02/18 12:05:37;;;;;;;10.30;6.10;;;;;;;9.02;48.63;99917.33;111196;1254;23169;-77
2023/02/18 12:08:47;;;;;;;12.90;7.30;;;;;;;8.95;49.09;99912.02;111419;1254;23777;-77
2023/02/18 12:11:48;;;;;;;10.10;6.40;;;;;;;8.93;49.47;99907.95;111311;1254;22134;-77
2023/02/18 12:14:39;;;;;;;17.80;7.50;;;;;;;8.85;49.60;99903.05;111483;1254;23711;-77
2023/02/18 12:18:01;;;;;;;15.00;8.80;;;;;;;8.77;49.92;99882.52;110961;1254;24377;-77
2023/02/18 12:21:03;;;;;;;12.40;8.10;;;;;;;8.62;50.34;99882.06;111139;1254;22520;-76
2023/02/18 12:25:14;;;;;;;8.10;5.60;;;;;;;8.40;51.10;99890.30;111273;1254;22931;-76
2023/02/18 12:28:20;;;;;;;7.60;4.90;;;;;;;8.13;52.27;99892.60;110734;1261;21971;-78
2023/02/18 12:31:37;;;;;;;9.90;6.30;;;;;;;7.91;53.16;99894.77;110096;1263;21980;-77
2023/02/18 12:34:56;;;;;;;13.70;5.90;;;;;;;7.77;53.94;99896.62;109385;1268;21998;-77
2023/02/18 12:38:42;;;;;;;;;;;;;;;;;;;;;
2023/02/18 12:42:25;;;;;;;10.60;6.20;;;;;;;7.42;55.25;99896.73;108862;1279;21995;-76
2023/02/18 12:46:10;;;;;;;8.80;5.60;;;;;;;7.24;55.97;99884.31;108869;1278;23004;-77
2023/02/18 12:49:48;;;;;;;13.00;9.60;;;;;;;7.10;56.69;99874.36;108600;1280;21994;-79
2023/02/18 12:53:17;;;;;;;18.60;11.20;;;;;;;7.06;57.64;99870.85;108784;1276;24301;-78
2023/02/18 12:56:47;;;;;;;20.20;13.80;;;;;;;7.03;58.05;99859.18;109323;1274;22010;-77
2023/02/18 13:00:10;;;;;;;14.80;9.70;;;;;;;6.90;58.72;99846.95;109613;1270;23037;-78
2023/02/18 13:03:16;;;;;;;10.90;8.20;;;;;;;6.90;59.34;99841.77;109344;1268;22438;-76
2023/02/18 13:06:43;;;;;;;12.00;10.00;;;;;;;6.89;59.95;99834.36;110209;1268;23622;-76
2023/02/18 13:10:03;;;;;;;15.10;9.50;;;;;;;6.83;60.57;99827.60;110085;1266;22164;-79
2023/02/18 13:17:50;;;;;;;23.10;12.20;;;;;;;6.68;61.91;99805.59;109045;1276;22953;-78
2023/02/18 13:21:16;;;;;;;;;;;;;;;;;;;;;
2023/02/18 13:24:38;;;;;;;20.40;13.80;;;;;;;6.72;63.00;99784.22;110216;1266;21985;-77
2023/02/18 13:28:27;;;;;;;20.40;15.60;;;;;;;6.71;63.46;99781.28;109273;1273;22438;-77
2023/02/18 13:31:28;;;;;;;14.60;11.40;;;;;;;6.70;63.83;99771.30;108544;1282;23082;-77
2023/02/18 13:34:53;;;;;;;19.70;15.00;;;;;;;6.69;64.11;99763.38;108666;1281;22468;-77
2023/02/18 13:38:21;;;;;;;16.70;14.10;;;;;;;6.68;64.47;99753.20;108720;1281;21998;-77
2023/02/18 13:41:01;;;;;;;16.10;12.40;;;;;;;6.70;64.98;99738.95;109017;1281;23111;-78
2023/02/18 13:43:48;;;;;;;21.90;18.50;;;;;;;6.74;65.22;99735.18;108724;1282;22552;-77
2023/02/18 13:46:27;;;;;;;21.10;16.10;;;;;;;6.78;65.46;99731.80;108639;1281;21994;-76
2023/02/18 13:49:06;;;;;;;35.10;25.70;;;;;;;6.78;65.53;99734.05;108506;1285;23663;-77
2023/02/18 13:52:05;;;;;;;24.70;19.60;;;;;;;6.75;65.84;99723.91;108496;1285;22074;-78
2023/02/18 13:55:06;;;;;;;21.10;17.60;;;;;;;6.77;65.95;99721.27;108361;1281;23836;-77
2023/02/18 13:57:54;;;;;;;22.20;18.30;;;;;;;6.76;66.32;99712.30;108657;1281;23065;-76
2023/02/18 14:00:47;;;;;;;23.60;19.10;;;;;;;6.75;66.48;99705.09;108624;1280;22003;-78
2023/02/18 14:03:32;;;;;;;26.40;20.40;;;;;;;6.73;66.86;99697.71;108821;1274;21985;-77
2023/02/18 14:06:35;;;;;;;27.10;22.80;;;;;;;6.72;67.09;99695.17;109072;1273;23627;-77
2023/02/18 14:09:28;;;;;;;22.00;15.60;;;;;;;6.69;67.38;99685.74;110410;1262;21968;-77
2023/02/18 14:12:45;;;;;;;21.40;14.90;;;;;;;6.69;67.53;99681.08;110566;1262;23713;-78
2023/02/18 14:15:18;;;;;;;22.30;16.90;;;;;;;6.72;67.83;99682.02;110020;1266;23778;-77
2023/02/18 14:18:12;;;;;;;17.00;15.00;;;;;;;6.77;67.99;99676.13;110104;1267;22617;-77
2023/02/18 14:20:50;;;;;;;22.50;20.00;;;;;;;6.80;67.99;99672.07;109943;1266;23042;-77
2023/02/18 14:23:20;;;;;;;19.80;16.30;;;;;;;6.78;67.99;99669.35;110037;1262;22722;-76
2023/02/18 14:26:07;;;;;;;19.50;15.90;;;;;;;6.76;68.05;99673.91;110606;1262;23641;-78
2023/02/18 14:29:12;;;;;;;20.00;17.10;;;;;;;6.76;68.36;99666.50;110717;1261;22655;-76
2023/02/18 14:32:14;;;;;;;18.90;15.90;;;;;;;6.79;68.75;99655.33;110017;1267;22088;-76
2023/02/18 14:35:31;;;;;;;19.80;14.20;;;;;;;6.79;68.79;99652.55;109648;1268;22237;-77
2023/02/18 14:38:59;;;;;;;21.50;16.50;;;;;;;6.76;68.82;99658.86;109781;1268;23732;-77